Time;durP1;ratioP1;P1;durP2;ratioP2;P2;SDS_P1;SDS_P2;PMS_P1;PMS_P2;Temp;Humidity;BMP_temperature;BMP_pressure;BME280_temperature;BME280_humidity;BME280_pressure;Samples;Min_cycle;Max_cycle;Signal;HPM_P1;HPM_P2
2021/06/16 00:02:24;;;;;;;5.50;1.95;;;20.00;59.40;;;;;;5116732;28;20042;-82
2021/06/16 00:04:50;;;;;;;8.05;1.98;;;20.00;59.50;;;;;;5116483;28;20027;-82
2021/06/16 00:07:16;;;;;;;6.60;1.90;;;20.00;59.70;;;;;;5116576;28;20062;-82
2021/06/16 00:09:42;;;;;;;9.48;1.73;;;19.90;59.90;;;;;;5116374;28;20028;-81
2021/06/16 00:12:08;;;;;;;7.18;1.70;;;19.90;60.00;;;;;;5113734;28;20050;-82
2021/06/16 00:14:35;;;;;;;8.70;1.90;;;19.80;60.10;;;;;;5116429;28;20503;-82
2021/06/16 00:17:01;;;;;;;8.05;2.10;;;19.80;60.80;;;;;;5116213;28;20020;-82
2021/06/16 00:19:26;;;;;;;8.27;1.90;;;19.80;60.20;;;;;;5081141;28;20023;-82
2021/06/16 00:21:52;;;;;;;8.05;1.98;;;19.80;60.50;;;;;;5092398;28;20020;-82
2021/06/16 00:24:20;;;;;;;6.35;1.73;;;19.70;60.50;;;;;;5095631;28;20366;-82
2021/06/16 00:26:46;;;;;;;9.02;1.83;;;19.70;60.50;;;;;;5095450;28;20518;-82
2021/06/16 00:29:12;;;;;;;6.60;1.70;;;19.70;60.70;;;;;;5077472;28;20043;-81
2021/06/16 00:31:38;;;;;;;6.78;1.80;;;19.60;60.60;;;;;;5099916;28;20024;-82
2021/06/16 00:34:03;;;;;;;6.38;1.88;;;19.60;60.70;;;;;;5096487;28;20115;-82
2021/06/16 00:36:30;;;;;;;9.30;1.75;;;19.70;60.80;;;;;;5077211;28;20034;-82
2021/06/16 00:38:56;;;;;;;14.23;2.15;;;19.60;60.50;;;;;;5096386;28;20111;-82
2021/06/16 00:41:22;;;;;;;7.53;1.50;;;19.60;60.20;;;;;;5094547;28;20032;-82
2021/06/16 00:43:48;;;;;;;8.07;1.73;;;19.60;60.00;;;;;;5111892;28;20553;-82
2021/06/16 00:46:14;;;;;;;9.40;1.60;;;19.60;59.80;;;;;;5115573;28;20480;-82
2021/06/16 00:48:39;;;;;;;8.82;1.50;;;19.60;59.50;;;;;;5096409;28;20032;-82
2021/06/16 00:51:05;;;;;;;7.38;1.70;;;19.60;59.30;;;;;;5077153;28;20032;-82
2021/06/16 00:53:30;;;;;;;7.03;1.75;;;19.60;59.10;;;;;;5096334;28;20024;-82
2021/06/16 00:55:56;;;;;;;9.85;1.98;;;19.60;59.20;;;;;;5108693;28;20016;-82
2021/06/16 00:58:22;;;;;;;5.93;1.77;;;19.50;59.40;;;;;;5095772;28;20020;-82
2021/06/16 01:01:04;;;;;;;9.13;1.98;;;19.50;59.30;;;;;;5115429;28;20024;-82
2021/06/16 01:04:07;;;;;;;9.38;1.70;;;19.50;59.50;;;;;;5097204;28;20032;-81
2021/06/16 01:06:38;;;;;;;7.53;1.50;;;19.40;60.00;;;;;;5115081;28;20484;-82
2021/06/16 01:09:13;;;;;;;10.45;2.05;;;19.40;60.20;;;;;;5115438;28;20020;-81
2021/06/16 01:12:24;;;;;;;7.03;1.90;;;19.30;60.40;;;;;;5096915;28;20023;-82
2021/06/16 01:14:59;;;;;;;8.23;1.80;;;19.30;60.80;;;;;;5073568;28;20050;-82
2021/06/16 01:17:43;;;;;;;8.85;1.58;;;19.20;61.00;;;;;;5076586;28;20027;-81
2021/06/16 01:20:28;;;;;;;5.85;1.40;;;19.20;61.50;;;;;;5076541;28;20027;-82
2021/06/16 01:23:08;;;;;;;8.98;1.92;;;19.10;61.60;;;;;;5094672;28;20048;-82
2021/06/16 01:26:01;;;;;;;8.48;1.83;;;19.00;61.90;;;;;;5094397;28;20446;-82
2021/06/16 01:28:34;;;;;;;5.53;1.73;;;19.00;62.10;;;;;;5089388;28;20030;-82
2021/06/16 01:31:02;;;;;;;5.97;1.70;;;19.00;62.20;;;;;;5114822;28;20380;-82
2021/06/16 01:33:27;;;;;;;6.22;1.70;;;18.90;62.40;;;;;;5097366;28;20035;-82
2021/06/16 01:35:55;;;;;;;5.93;1.88;;;18.90;62.70;;;;;;5076286;28;20024;-82
2021/06/16 01:38:25;;;;;;;8.20;1.77;;;18.90;62.80;;;;;;5094300;28;20016;-81
2021/06/16 01:40:56;;;;;;;7.68;1.95;;;18.90;62.80;;;;;;5094485;28;20099;-82
2021/06/16 01:43:22;;;;;;;8.13;1.83;;;18.80;62.80;;;;;;5076173;28;20085;-82
2021/06/16 01:45:49;;;;;;;5.95;1.90;;;18.80;62.90;;;;;;5059575;28;20074;-82
2021/06/16 01:48:18;;;;;;;6.85;1.80;;;18.80;63.20;;;;;;5075919;28;20527;-82
2021/06/16 01:50:46;;;;;;;8.25;1.95;;;18.70;63.50;;;;;;5098847;28;20028;-82
2021/06/16 01:53:13;;;;;;;9.38;2.20;;;18.70;64.40;;;;;;5114603;28;20019;-82
2021/06/16 01:55:39;;;;;;;10.45;2.45;;;18.60;63.70;;;;;;5114359;28;20020;-81
2021/06/16 01:58:07;;;;;;;9.93;2.35;;;18.60;63.90;;;;;;5114402;28;20045;-82
2021/06/16 02:00:35;;;;;;;8.20;2.15;;;18.60;64.20;;;;;;5111051;28;20388;-82
2021/06/16 02:03:01;;;;;;;5.70;1.88;;;18.50;64.30;;;;;;5094234;28;20424;-81
2021/06/16 02:05:28;;;;;;;7.90;2.25;;;18.50;64.40;;;;;;5093757;28;20076;-81
2021/06/16 02:08:19;;;;;;;12.02;2.35;;;18.50;64.60;;;;;;5093842;28;20701;-81
2021/06/16 02:10:49;;;;;;;9.95;2.20;;;18.40;64.80;;;;;;5082056;28;20032;-82
2021/06/16 02:13:20;;;;;;;8.40;2.45;;;18.30;65.00;;;;;;5095828;28;20464;-81
2021/06/16 02:16:00;;;;;;;8.05;2.38;;;18.30;65.40;;;;;;5095780;28;20119;-82
2021/06/16 02:18:49;;;;;;;7.97;2.58;;;18.20;65.50;;;;;;5111882;28;20111;-82
2021/06/16 02:21:15;;;;;;;10.82;2.50;;;18.20;65.60;;;;;;5113461;28;20038;-82
2021/06/16 02:23:43;;;;;;;8.40;2.70;;;18.20;65.70;;;;;;5111952;28;20106;-82
2021/06/16 02:26:13;;;;;;;10.88;2.53;;;18.20;65.90;;;;;;5113721;28;20508;-82
2021/06/16 02:28:39;;;;;;;10.07;2.70;;;18.20;65.90;;;;;;5113691;28;20032;-82
2021/06/16 02:31:05;;;;;;;9.43;2.53;;;18.20;65.90;;;;;;5109047;28;20028;-82
2021/06/16 02:33:30;;;;;;;10.00;2.58;;;18.20;66.00;;;;;;5089063;28;20055;-81
2021/06/16 02:35:57;;;;;;;9.48;2.50;;;18.20;66.10;;;;;;5102591;28;20036;-82
2021/06/16 02:38:27;;;;;;;7.82;2.42;;;18.10;66.10;;;;;;5093676;28;20031;-82
2021/06/16 02:40:54;;;;;;;12.27;2.50;;;18.10;66.30;;;;;;5112548;28;20422;-82
2021/06/16 02:43:22;;;;;;;12.20;2.95;;;18.10;66.30;;;;;;5084223;28;20035;-83
2021/06/16 02:45:49;;;;;;;9.63;2.50;;;18.10;66.30;;;;;;5075407;28;20067;-82
2021/06/16 02:48:17;;;;;;;8.88;2.60;;;18.00;66.60;;;;;;5102191;28;20488;-82
2021/06/16 02:50:44;;;;;;;7.55;2.30;;;18.00;66.60;;;;;;5113687;28;20384;-82
2021/06/16 02:53:17;;;;;;;7.20;2.50;;;18.00;66.70;;;;;;5102987;28;20362;-82
2021/06/16 02:55:45;;;;;;;7.53;2.35;;;17.90;67.50;;;;;;5093455;28;20020;-82
2021/06/16 02:58:14;;;;;;;8.95;2.30;;;17.90;66.90;;;;;;5075466;28;20024;-82
2021/06/16 03:00:39;;;;;;;;;;;17.90;66.90;;;;;;5093542;28;20024;-82
2021/06/16 03:03:06;;;;;;;8.85;2.50;;;17.90;66.70;;;;;;5093118;28;19962;-81
2021/06/16 03:05:32;;;;;;;7.53;2.70;;;17.90;67.30;;;;;;5075273;28;20108;-81
2021/06/16 03:08:00;;;;;;;7.50;2.53;;;17.80;67.40;;;;;;5082251;28;20118;-82
2021/06/16 03:10:29;;;;;;;7.70;2.53;;;17.90;67.60;;;;;;5113620;28;20079;-82
2021/06/16 03:12:57;;;;;;;7.10;2.90;;;17.80;67.50;;;;;;5113662;28;20372;-81
2021/06/16 03:15:24;;;;;;;11.45;2.67;;;17.80;67.40;;;;;;5113627;28;20012;-82
2021/06/16 03:17:50;;;;;;;11.05;2.05;;;17.80;67.40;;;;;;5098356;28;20489;-82
2021/06/16 03:20:19;;;;;;;9.07;2.28;;;17.80;67.50;;;;;;5117613;28;20020;-82
2021/06/16 03:22:46;;;;;;;;;;;17.80;67.50;;;;;;5099375;28;20020;-82
2021/06/16 03:25:13;;;;;;;4.85;2.00;;;17.80;67.30;;;;;;5113828;28;19965;-82
2021/06/16 03:27:39;;;;;;;7.68;2.40;;;17.80;67.50;;;;;;5097081;28;20024;-81
2021/06/16 03:30:06;;;;;;;9.55;2.35;;;17.80;67.40;;;;;;5078802;28;20031;-82
2021/06/16 03:32:34;;;;;;;11.70;2.70;;;17.80;67.50;;;;;;5096685;28;20119;-82
2021/06/16 03:34:59;;;;;;;6.38;2.10;;;17.80;67.50;;;;;;5078607;28;20103;-81
2021/06/16 03:37:26;;;;;;;10.23;2.90;;;17.80;67.60;;;;;;5099769;28;20452;-81
2021/06/16 03:39:54;;;;;;;9.45;2.60;;;17.80;67.80;;;;;;5116943;28;20121;-81
2021/06/16 03:42:20;;;;;;;9.48;2.83;;;17.80;67.90;;;;;;5098897;28;20096;-82
2021/06/16 03:44:48;;;;;;;6.80;2.28;;;17.70;68.10;;;;;;5096723;28;20024;-82
2021/06/16 03:47:15;;;;;;;8.93;2.50;;;17.70;68.10;;;;;;5096614;28;20028;-81
2021/06/16 03:49:43;;;;;;;7.30;2.30;;;17.80;68.30;;;;;;5096590;28;20440;-82
2021/06/16 03:52:09;;;;;;;8.50;2.70;;;17.80;68.30;;;;;;5112535;28;20028;-82
2021/06/16 03:54:36;;;;;;;9.00;2.47;;;17.80;68.30;;;;;;5098449;28;20440;-82
2021/06/16 03:57:02;;;;;;;8.38;2.47;;;17.80;68.40;;;;;;5115900;28;20031;-82
2021/06/16 03:59:29;;;;;;;8.90;3.08;;;17.70;68.40;;;;;;5098919;28;20036;-82
2021/06/16 04:01:54;;;;;;;8.25;2.55;;;17.70;68.50;;;;;;5096853;28;20028;-82
2021/06/16 04:04:22;;;;;;;7.30;2.67;;;17.70;68.50;;;;;;5095499;28;20103;-82
2021/06/16 04:06:48;;;;;;;7.97;2.58;;;17.70;68.60;;;;;;5099749;28;20141;-82
2021/06/16 04:09:15;;;;;;;10.00;2.38;;;17.80;68.50;;;;;;5096017;28;20107;-82
2021/06/16 04:11:42;;;;;;;9.02;2.38;;;17.80;68.50;;;;;;5095884;28;20101;-81
2021/06/16 04:14:08;;;;;;;9.40;3.00;;;17.80;68.50;;;;;;5096065;28;20051;-81
2021/06/16 04:16:33;;;;;;;11.73;2.95;;;17.80;68.40;;;;;;5096044;28;20469;-81
2021/06/16 04:18:59;;;;;;;9.40;2.72;;;17.90;68.40;;;;;;5077902;28;20020;-82
2021/06/16 04:21:25;;;;;;;9.05;3.38;;;17.90;68.30;;;;;;5077782;28;20032;-81
2021/06/16 04:23:51;;;;;;;10.45;2.70;;;18.00;68.30;;;;;;5095568;28;20032;-81
2021/06/16 04:26:20;;;;;;;10.10;3.20;;;18.00;68.20;;;;;;5077084;28;20354;-81
2021/06/16 04:28:46;;;;;;;7.57;3.05;;;18.10;68.10;;;;;;5095628;28;20358;-81
2021/06/16 04:31:11;;;;;;;7.15;3.10;;;18.10;68.10;;;;;;5044313;28;20038;-82
2021/06/16 04:33:37;;;;;;;9.02;3.00;;;18.10;68.10;;;;;;5096066;28;20028;-82
2021/06/16 04:36:05;;;;;;;10.68;2.95;;;18.10;68.20;;;;;;5077738;28;20047;-81
2021/06/16 04:38:31;;;;;;;7.65;2.85;;;18.20;68.10;;;;;;5095214;28;20389;-82
2021/06/16 04:40:56;;;;;;;11.02;3.10;;;18.20;68.00;;;;;;5095492;28;20032;-81
2021/06/16 04:43:23;;;;;;;9.07;3.03;;;18.20;67.90;;;;;;5095794;28;20032;-82
2021/06/16 04:45:48;;;;;;;11.38;3.13;;;18.20;67.70;;;;;;5077753;28;20032;-81
2021/06/16 04:48:14;;;;;;;9.68;3.05;;;18.20;67.90;;;;;;5077410;28;20028;-81
2021/06/16 04:50:40;;;;;;;10.23;3.28;;;18.20;68.00;;;;;;5100628;28;20032;-82
2021/06/16 04:53:05;;;;;;;11.77;3.63;;;18.20;68.50;;;;;;5116058;28;20023;-82
2021/06/16 04:55:31;;;;;;;8.98;2.90;;;18.20;67.80;;;;;;5114610;28;20028;-81
2021/06/16 04:57:57;;;;;;;10.45;3.50;;;18.30;67.90;;;;;;5115043;28;20024;-82
2021/06/16 05:00:24;;;;;;;7.80;2.90;;;18.30;67.80;;;;;;5115140;28;20468;-82
2021/06/16 05:03:08;;;;;;;11.10;3.67;;;18.30;67.90;;;;;;5115801;28;20038;-81
2021/06/16 05:05:33;;;;;;;11.55;3.60;;;18.40;68.20;;;;;;5096162;28;20024;-81
2021/06/16 05:07:59;;;;;;;11.90;4.13;;;18.40;68.10;;;;;;5115727;28;20019;-82
2021/06/16 05:10:24;;;;;;;11.07;3.88;;;18.40;68.20;;;;;;5114628;28;20470;-81
2021/06/16 05:12:50;;;;;;;13.73;4.10;;;18.50;68.10;;;;;;5115360;28;20055;-82
2021/06/16 05:15:16;;;;;;;12.93;4.55;;;18.60;68.20;;;;;;5115114;28;20024;-82
2021/06/16 05:17:42;;;;;;;16.55;4.32;;;18.60;67.90;;;;;;5080446;28;20078;-81
2021/06/16 05:20:11;;;;;;;9.18;4.28;;;18.70;68.00;;;;;;5115536;28;20484;-82
2021/06/16 05:22:37;;;;;;;;;;;18.80;67.90;;;;;;5111849;28;20043;-82
2021/06/16 05:25:05;;;;;;;12.80;4.03;;;18.80;67.60;;;;;;5112920;28;20396;-82
2021/06/16 05:27:30;;;;;;;13.55;3.85;;;18.90;67.70;;;;;;5111865;28;20036;-81
2021/06/16 05:29:56;;;;;;;13.88;3.88;;;18.90;67.50;;;;;;5096950;28;20031;-81
2021/06/16 05:32:22;;;;;;;11.15;3.30;;;19.00;67.30;;;;;;5096904;28;20039;-81
2021/06/16 05:34:48;;;;;;;9.98;3.47;;;19.10;67.10;;;;;;5115161;28;20027;-81
2021/06/16 05:37:14;;;;;;;14.70;3.45;;;19.20;67.30;;;;;;5097410;28;20028;-81
2021/06/16 05:39:40;;;;;;;10.57;3.88;;;19.20;67.00;;;;;;5098546;28;20381;-81
2021/06/16 05:42:06;;;;;;;13.82;3.28;;;19.30;67.00;;;;;;5058277;28;20123;-82
2021/06/16 05:44:32;;;;;;;13.35;3.50;;;19.40;67.00;;;;;;5065486;28;20457;-81
2021/06/16 05:46:58;;;;;;;18.08;3.50;;;19.50;66.70;;;;;;5080814;28;20102;-81
2021/06/16 05:49:23;;;;;;;17.63;3.40;;;19.60;66.50;;;;;;5110502;28;20093;-80
2021/06/16 05:51:49;;;;;;;14.65;3.90;;;19.70;67.10;;;;;;5094849;28;20039;-80
2021/06/16 05:54:15;;;;;;;13.05;3.47;;;19.80;66.30;;;;;;5112710;28;20107;-81
2021/06/16 05:56:41;;;;;;;10.95;3.53;;;19.80;66.20;;;;;;5113865;28;20032;-81
2021/06/16 05:59:08;;;;;;;11.98;3.92;;;19.90;66.10;;;;;;5113859;28;20051;-81
2021/06/16 06:01:35;;;;;;;14.38;3.97;;;20.00;66.10;;;;;;5109016;28;20039;-80
2021/06/16 06:04:06;;;;;;;12.55;3.90;;;20.10;66.10;;;;;;5081242;28;20500;-80
2021/06/16 06:06:33;;;;;;;11.10;3.88;;;20.20;66.00;;;;;;5113384;28;20032;-81
2021/06/16 06:08:59;;;;;;;12.75;3.92;;;20.30;65.80;;;;;;5107795;28;20034;-80
2021/06/16 06:11:25;;;;;;;9.27;3.30;;;20.30;65.40;;;;;;5113648;28;20028;-81
2021/06/16 06:13:51;;;;;;;12.00;4.00;;;20.50;65.30;;;;;;5094598;28;20027;-81
2021/06/16 06:16:18;;;;;;;12.60;4.50;;;20.60;64.90;;;;;;5095475;28;20035;-80
2021/06/16 06:18:44;;;;;;;8.63;4.13;;;20.60;64.40;;;;;;5099923;28;20027;-81
2021/06/16 06:21:10;;;;;;;13.73;3.90;;;20.70;64.40;;;;;;5075472;28;20028;-81
2021/06/16 06:23:37;;;;;;;9.23;4.00;;;20.80;64.30;;;;;;5111867;28;20027;-82
2021/06/16 06:26:03;;;;;;;11.93;4.47;;;20.90;64.20;;;;;;5095149;28;20047;-81
2021/06/16 06:28:28;;;;;;;11.48;4.20;;;21.00;63.90;;;;;;5075390;28;20051;-80
2021/06/16 06:30:54;;;;;;;11.93;4.20;;;21.00;63.60;;;;;;5093749;28;20491;-81
2021/06/16 06:33:19;;;;;;;9.38;3.70;;;21.10;63.40;;;;;;5080231;28;20046;-79
2021/06/16 06:35:45;;;;;;;11.38;3.88;;;21.30;63.40;;;;;;5083214;28;20434;-79
2021/06/16 06:38:13;;;;;;;14.15;4.82;;;21.40;63.10;;;;;;5075863;28;20032;-79
2021/06/16 06:40:39;;;;;;;14.40;4.63;;;21.50;62.90;;;;;;5076341;28;20081;-79
2021/06/16 06:43:05;;;;;;;9.68;3.75;;;21.60;62.50;;;;;;5075256;28;20032;-79
2021/06/16 06:45:31;;;;;;;12.00;4.03;;;21.70;62.10;;;;;;5106093;28;20053;-79
2021/06/16 06:47:56;;;;;;;8.18;3.85;;;21.90;62.00;;;;;;5095580;28;20048;-81
2021/06/16 06:50:22;;;;;;;12.23;3.67;;;22.00;61.80;;;;;;5101984;28;20468;-80
2021/06/16 06:52:48;;;;;;;10.82;3.67;;;22.20;61.50;;;;;;5078053;28;20034;-80
2021/06/16 06:55:15;;;;;;;8.82;3.60;;;22.30;61.10;;;;;;5112277;28;20024;-80
2021/06/16 06:57:41;;;;;;;16.38;3.80;;;22.40;60.70;;;;;;5099531;28;20027;-80
2021/06/16 07:00:09;;;;;;;13.52;3.75;;;22.60;60.80;;;;;;5085924;28;20082;-81
2021/06/16 07:02:35;;;;;;;11.40;3.67;;;22.70;60.30;;;;;;5063885;28;20429;-80
2021/06/16 07:05:00;;;;;;;10.82;3.80;;;22.90;60.10;;;;;;5099388;28;20152;-81
2021/06/16 07:07:26;;;;;;;9.75;4.10;;;23.00;59.60;;;;;;5117788;28;20024;-81
2021/06/16 07:09:52;;;;;;;8.65;3.92;;;23.20;59.40;;;;;;5117456;28;20027;-80
2021/06/16 07:12:18;;;;;;;6.75;3.83;;;23.30;59.20;;;;;;5117817;28;20024;-80
2021/06/16 07:14:44;;;;;;;7.00;3.70;;;23.30;58.80;;;;;;5117594;28;20552;-80
2021/06/16 07:17:10;;;;;;;9.75;3.72;;;23.40;58.60;;;;;;5117626;28;20031;-80
2021/06/16 07:19:36;;;;;;;9.32;3.88;;;23.50;59.20;;;;;;5117107;28;20012;-80
2021/06/16 07:22:02;;;;;;;12.77;4.38;;;23.60;58.40;;;;;;5117281;28;20495;-81
2021/06/16 07:24:29;;;;;;;8.20;4.13;;;23.60;58.40;;;;;;5116531;28;20073;-80
2021/06/16 07:26:56;;;;;;;15.02;3.92;;;23.70;57.90;;;;;;5116648;28;20043;-75
2021/06/16 07:29:22;;;;;;;14.13;4.30;;;23.80;58.00;;;;;;5087532;28;20034;-75
2021/06/16 07:31:48;;;;;;;9.75;4.03;;;23.80;57.90;;;;;;5116486;28;20432;-75
2021/06/16 07:34:14;;;;;;;11.73;4.35;;;24.00;57.70;;;;;;5115856;28;20707;-75
2021/06/16 07:36:40;;;;;;;8.60;3.72;;;24.10;57.70;;;;;;5067575;28;20031;-74
2021/06/16 07:39:06;;;;;;;13.88;4.38;;;24.30;57.30;;;;;;5106429;28;20027;-74
2021/06/16 07:41:32;;;;;;;13.68;3.97;;;24.40;56.80;;;;;;5116225;28;20491;-74
2021/06/16 07:43:58;;;;;;;11.82;4.30;;;24.50;56.60;;;;;;5115537;28;20059;-74
2021/06/16 07:46:24;;;;;;;9.00;4.18;;;24.60;57.20;;;;;;5101488;28;20059;-75
2021/06/16 07:48:50;;;;;;;9.07;4.22;;;24.70;56.30;;;;;;5110791;28;20380;-74
2021/06/16 07:51:20;;;;;;;8.57;3.97;;;24.80;56.30;;;;;;5097795;28;20462;-75
2021/06/16 07:53:46;;;;;;;9.63;4.13;;;25.00;55.90;;;;;;5108085;28;20040;-74
2021/06/16 07:56:12;;;;;;;11.02;4.30;;;25.10;55.40;;;;;;5095712;28;20028;-74
2021/06/16 07:58:38;;;;;;;8.15;3.70;;;25.20;55.30;;;;;;5078047;28;20025;-74
2021/06/16 08:01:04;;;;;;;10.07;3.60;;;25.30;55.50;;;;;;5077517;28;20161;-74
2021/06/16 08:03:29;;;;;;;9.63;3.95;;;25.40;55.10;;;;;;5103235;28;20046;-75
2021/06/16 08:05:55;;;;;;;14.60;4.30;;;25.50;54.80;;;;;;5116025;28;20027;-74
2021/06/16 08:08:23;;;;;;;19.67;3.80;;;25.60;54.40;;;;;;5069353;28;20036;-74
2021/06/16 08:10:49;;;;;;;9.50;4.43;;;25.60;54.00;;;;;;5095540;28;20120;-74
2021/06/16 08:13:15;;;;;;;8.23;3.97;;;25.70;53.80;;;;;;5083169;28;20031;-75
2021/06/16 08:15:41;;;;;;;13.23;3.92;;;25.70;54.00;;;;;;5115915;28;20019;-75
2021/06/16 08:18:08;;;;;;;11.27;4.32;;;25.80;54.20;;;;;;5113791;28;20524;-76
2021/06/16 08:20:34;;;;;;;12.13;4.55;;;25.80;54.00;;;;;;5113980;28;20071;-75
2021/06/16 08:23:00;;;;;;;18.02;5.00;;;26.00;53.70;;;;;;5104828;28;20110;-74
2021/06/16 08:25:25;;;;;;;12.43;5.25;;;26.10;53.60;;;;;;5107633;28;20131;-74
2021/06/16 08:27:51;;;;;;;10.80;4.55;;;26.20;53.30;;;;;;5095327;28;20101;-74
2021/06/16 08:30:17;;;;;;;12.98;4.43;;;26.20;53.00;;;;;;5082887;28;20012;-74
2021/06/16 08:32:43;;;;;;;16.23;4.55;;;26.30;53.20;;;;;;5114754;28;20047;-74
2021/06/16 08:35:10;;;;;;;11.88;4.80;;;26.40;53.80;;;;;;5114338;28;20027;-75
2021/06/16 08:37:36;;;;;;;11.75;4.30;;;26.60;53.80;;;;;;5100000;28;20488;-75
2021/06/16 08:40:03;;;;;;;20.98;5.35;;;26.70;53.40;;;;;;5096580;28;20031;-76
2021/06/16 08:42:29;;;;;;;7.50;3.95;;;26.80;52.70;;;;;;5106214;28;20377;-76
2021/06/16 08:44:56;;;;;;;9.02;4.32;;;26.90;52.30;;;;;;5076825;28;20028;-76
2021/06/16 08:47:24;;;;;;;6.07;4.00;;;27.00;52.10;;;;;;5095382;28;20058;-76
2021/06/16 08:49:50;;;;;;;8.98;4.30;;;27.00;51.90;;;;;;5087328;28;20059;-75
2021/06/16 08:52:17;;;;;;;9.23;4.47;;;27.00;52.00;;;;;;5113019;28;20048;-76
2021/06/16 08:54:43;;;;;;;10.05;4.25;;;27.00;52.00;;;;;;5060747;28;20028;-76
2021/06/16 08:57:10;;;;;;;11.98;4.18;;;27.10;52.20;;;;;;5077063;28;20047;-75
2021/06/16 08:59:35;;;;;;;37.90;5.65;;;27.20;52.20;;;;;;5073576;28;20058;-75
2021/06/16 09:02:02;;;;;;;13.00;5.07;;;27.30;52.20;;;;;;5087192;28;20048;-77
2021/06/16 09:04:42;;;;;;;19.13;5.03;;;27.50;52.00;;;;;;5092846;28;20493;-76
2021/06/16 09:07:13;;;;;;;19.52;5.50;;;27.60;51.10;;;;;;5107356;28;20023;-76
2021/06/16 09:09:38;;;;;;;14.70;4.10;;;27.60;51.40;;;;;;5083079;28;20387;-74
2021/06/16 09:12:06;;;;;;;12.48;4.00;;;27.70;51.70;;;;;;5059594;28;20123;-75
2021/06/16 09:14:32;;;;;;;15.20;4.97;;;27.80;51.80;;;;;;5069791;28;20039;-76
2021/06/16 09:17:02;;;;;;;12.02;4.75;;;28.00;51.40;;;;;;5051991;28;20024;-76
2021/06/16 09:19:31;;;;;;;11.98;4.55;;;28.20;51.60;;;;;;5086546;28;20024;-75
2021/06/16 09:22:07;;;;;;;8.18;4.65;;;28.30;51.10;;;;;;5096376;28;20031;-75
2021/06/16 09:24:44;;;;;;;11.30;4.40;;;28.40;50.40;;;;;;5094542;28;20028;-75
2021/06/16 09:27:10;;;;;;;9.10;4.53;;;28.50;50.50;;;;;;5114572;28;20043;-75
2021/06/16 09:29:35;;;;;;;13.45;4.70;;;28.50;50.70;;;;;;5088489;28;20676;-75
2021/06/16 09:32:05;;;;;;;8.68;4.28;;;28.50;50.00;;;;;;5061880;28;20534;-75
2021/06/16 09:34:32;;;;;;;13.80;4.78;;;28.40;50.40;;;;;;5112144;28;20024;-74
2021/06/16 09:37:04;;;;;;;19.00;4.70;;;28.40;50.40;;;;;;5076866;28;20032;-74
2021/06/16 09:39:31;;;;;;;8.55;4.15;;;28.40;50.60;;;;;;5109343;28;20040;-75
2021/06/16 09:42:15;;;;;;;14.32;3.88;;;28.30;50.60;;;;;;5096102;28;20084;-75
2021/06/16 09:44:43;;;;;;;11.95;5.05;;;28.30;50.60;;;;;;5114237;28;20020;-74
2021/06/16 09:47:13;;;;;;;;;;;28.30;50.90;;;;;;5112996;28;20020;-75
2021/06/16 09:49:48;;;;;;;12.80;5.25;;;28.30;50.70;;;;;;5114347;28;19908;-75
2021/06/16 09:52:31;;;;;;;9.52;3.97;;;28.30;50.60;;;;;;5076618;28;20385;-75
2021/06/16 09:55:01;;;;;;;9.25;4.22;;;28.40;50.90;;;;;;5095358;28;20688;-75
2021/06/16 09:57:27;;;;;;;8.32;4.32;;;28.60;50.90;;;;;;5061133;28;20385;-75
2021/06/16 09:59:59;;;;;;;10.57;4.40;;;28.80;51.00;;;;;;5092290;28;20020;-75
2021/06/16 10:02:28;;;;;;;13.07;4.38;;;29.00;50.90;;;;;;5095139;28;20034;-75
2021/06/16 10:04:58;;;;;;;11.95;4.18;;;29.20;49.90;;;;;;5096475;28;20051;-75
2021/06/16 10:07:31;;;;;;;8.57;4.35;;;29.20;49.80;;;;;;5113081;28;20028;-75
2021/06/16 10:10:08;;;;;;;11.25;4.80;;;29.30;50.00;;;;;;5080219;28;20496;-75
2021/06/16 10:12:36;;;;;;;9.85;4.43;;;29.30;49.30;;;;;;5105293;28;20539;-74
2021/06/16 10:15:06;;;;;;;9.07;4.80;;;29.50;49.70;;;;;;5113854;28;20044;-74
2021/06/16 10:17:32;;;;;;;9.75;4.00;;;29.60;49.30;;;;;;5112458;28;20434;-75
2021/06/16 10:19:57;;;;;;;9.57;4.72;;;29.70;49.20;;;;;;5107137;28;20107;-75
2021/06/16 10:22:23;;;;;;;13.40;5.00;;;29.80;48.90;;;;;;5093228;28;20362;-74
2021/06/16 10:24:50;;;;;;;11.48;5.30;;;29.90;49.50;;;;;;5078370;28;20345;-74
2021/06/16 10:27:24;;;;;;;12.85;5.25;;;29.90;49.20;;;;;;5113104;28;20530;-75
2021/06/16 10:29:52;;;;;;;13.15;4.72;;;30.10;48.70;;;;;;5093216;28;20036;-74
2021/06/16 10:32:18;;;;;;;10.05;4.50;;;30.10;48.60;;;;;;5082833;28;20023;-74
2021/06/16 10:34:53;;;;;;;13.82;5.10;;;30.20;49.00;;;;;;5112512;28;20032;-74
2021/06/16 10:37:41;;;;;;;10.52;4.93;;;30.30;48.80;;;;;;5103210;28;20500;-73
2021/06/16 10:40:16;;;;;;;12.48;5.53;;;30.30;48.90;;;;;;5092931;28;20529;-74
2021/06/16 10:43:03;;;;;;;10.48;5.15;;;30.30;48.30;;;;;;5104400;28;20055;-74
2021/06/16 10:45:29;;;;;;;6.45;4.38;;;30.30;48.30;;;;;;5094967;28;20503;-75
2021/06/16 10:47:56;;;;;;;11.50;5.05;;;30.40;48.60;;;;;;5099561;28;20032;-74
2021/06/16 10:50:42;;;;;;;10.85;4.80;;;30.40;48.00;;;;;;5086654;28;20032;-74
2021/06/16 10:53:07;;;;;;;7.05;4.80;;;30.50;48.40;;;;;;5112608;28;20032;-74
2021/06/16 10:55:52;;;;;;;8.05;5.50;;;30.60;47.80;;;;;;5094623;28;20054;-74
2021/06/16 10:58:25;;;;;;;15.77;5.95;;;30.60;47.60;;;;;;5112929;28;20024;-75
2021/06/16 11:01:16;;;;;;;7.35;4.32;;;30.60;46.70;;;;;;5059268;28;20035;-75
2021/06/16 11:03:54;;;;;;;12.07;4.70;;;30.60;47.80;;;;;;5092694;28;20485;-75
2021/06/16 11:06:32;;;;;;;13.07;4.57;;;30.60;48.10;;;;;;5092759;28;20115;-75
2021/06/16 11:08:58;;;;;;;12.75;4.82;;;30.70;47.50;;;;;;5091276;28;20036;-75
2021/06/16 11:11:50;;;;;;;10.23;4.90;;;30.80;47.40;;;;;;5076670;28;20031;-75
2021/06/16 11:14:37;;;;;;;11.45;5.43;;;30.90;47.20;;;;;;5113244;28;20034;-75
2021/06/16 11:17:07;;;;;;;11.67;5.00;;;30.90;47.40;;;;;;5090492;28;20629;-74
2021/06/16 11:19:36;;;;;;;7.95;4.78;;;31.00;47.30;;;;;;5087007;28;20349;-74
2021/06/16 11:22:24;;;;;;;9.50;5.20;;;31.00;47.50;;;;;;5076149;28;20028;-74
2021/06/16 11:25:05;;;;;;;13.10;5.25;;;31.10;46.90;;;;;;5087141;28;20036;-74
2021/06/16 11:27:57;;;;;;;9.95;4.30;;;31.20;47.00;;;;;;5112257;28;20052;-73
2021/06/16 11:30:32;;;;;;;10.50;4.72;;;31.30;47.20;;;;;;5111657;28;20023;-74
2021/06/16 11:33:15;;;;;;;8.68;4.40;;;31.40;47.30;;;;;;5110893;28;20024;-74
2021/06/16 11:35:42;;;;;;;10.45;4.13;;;31.50;46.70;;;;;;5092903;28;20431;-74
2021/06/16 11:38:10;;;;;;;10.57;4.00;;;31.60;46.30;;;;;;5084851;28;20022;-74
2021/06/16 11:40:36;;;;;;;10.50;4.57;;;31.60;46.20;;;;;;5116061;28;20107;-74
2021/06/16 11:43:02;;;;;;;12.63;4.00;;;31.70;46.20;;;;;;5081347;28;20118;-75
2021/06/16 11:45:29;;;;;;;9.07;4.20;;;31.80;45.90;;;;;;5100554;28;20484;-74
2021/06/16 11:47:58;;;;;;;9.67;4.37;;;31.80;45.70;;;;;;5103449;28;20019;-74
2021/06/16 11:50:31;;;;;;;13.77;4.00;;;31.70;45.30;;;;;;5114097;28;20394;-74
2021/06/16 11:53:06;;;;;;;7.47;3.80;;;31.80;46.00;;;;;;5110143;28;20645;-74
2021/06/16 11:55:38;;;;;;;8.10;4.00;;;31.80;45.30;;;;;;5095954;28;20051;-74
2021/06/16 11:58:24;;;;;;;7.18;3.40;;;31.80;44.70;;;;;;5080043;28;20038;-74
2021/06/16 12:00:51;;;;;;;6.70;3.88;;;31.80;45.10;;;;;;5094653;28;20028;-75
2021/06/16 12:03:17;;;;;;;5.38;3.22;;;31.90;44.50;;;;;;5096999;28;20410;-74
2021/06/16 12:05:43;;;;;;;6.63;3.40;;;32.00;44.70;;;;;;5115871;28;20024;-74
2021/06/16 12:08:09;;;;;;;9.45;3.90;;;32.20;44.90;;;;;;5093217;28;20039;-75
2021/06/16 12:10:35;;;;;;;8.43;3.90;;;32.30;44.70;;;;;;5097021;28;20039;-75
2021/06/16 12:13:09;;;;;;;9.23;3.83;;;32.40;44.50;;;;;;5114532;28;20023;-75
2021/06/16 12:15:37;;;;;;;9.02;3.78;;;32.50;45.20;;;;;;5115818;28;20082;-74
2021/06/16 12:18:07;;;;;;;;;;;32.60;44.00;;;;;;5107410;28;20012;-75
2021/06/16 12:20:51;;;;;;;8.77;3.67;;;32.60;43.90;;;;;;5080862;28;19998;-76
2021/06/16 12:23:29;;;;;;;4.90;3.35;;;32.70;43.40;;;;;;5086423;28;20110;-75
2021/06/16 12:26:03;;;;;;;8.55;3.88;;;32.60;43.00;;;;;;5115471;28;20512;-75
2021/06/16 12:28:29;;;;;;;8.23;3.67;;;32.50;44.00;;;;;;5087112;28;20040;-75
2021/06/16 12:30:57;;;;;;;5.57;3.50;;;32.40;44.90;;;;;;5093791;28;20434;-75
2021/06/16 12:33:36;;;;;;;8.98;3.83;;;32.40;43.90;;;;;;5080573;28;20515;-76
2021/06/16 12:38:48;;;;;;;5.40;3.47;;;32.10;43.90;;;;;;5114833;28;20048;-76
2021/06/16 12:41:28;;;;;;;8.95;3.47;;;32.00;45.60;;;;;;5114956;28;20422;-76
2021/06/16 12:44:15;;;;;;;6.53;3.42;;;32.00;45.40;;;;;;5113594;28;20376;-76
2021/06/16 12:47:02;;;;;;;7.00;3.63;;;32.00;44.50;;;;;;5098042;28;20103;-75
2021/06/16 12:49:35;;;;;;;9.88;3.67;;;32.20;43.90;;;;;;5109226;28;20028;-75
2021/06/16 12:52:04;;;;;;;7.03;3.35;;;32.40;44.50;;;;;;5115094;28;20028;-76
2021/06/16 12:54:40;;;;;;;9.75;3.30;;;32.50;44.10;;;;;;5080976;28;20381;-76
2021/06/16 12:57:18;;;;;;;7.53;4.22;;;32.60;44.00;;;;;;5079267;28;20016;-75